sensor_id;sensor_type;location;lat;lon;timestamp;noise_LAeq;noise_LA_min;noise_LA_max;noise_LA01;noise_LA95
82130;Laerm;72992;50.450;9.918;2023-11-21T00:01:57;49.41;47.82;57.52;;
82130;Laerm;72992;50.450;9.918;2023-11-21T00:04:22;61.23;47.90;74.54;;
82130;Laerm;72992;50.450;9.918;2023-11-21T00:06:47;58.12;48.03;70.65;;
82130;Laerm;72992;50.450;9.918;2023-11-21T00:09:13;48.92;47.88;53.72;;
82130;Laerm;72992;50.450;9.918;2023-11-21T00:11:40;59.49;47.79;75.31;;
82130;Laerm;72992;50.450;9.918;2023-11-21T00:14:06;50.39;47.85;63.77;;
82130;Laerm;72992;50.450;9.918;2023-11-21T00:16:31;61.97;47.90;73.08;;
82130;Laerm;72992;50.450;9.918;2023-11-21T00:18:56;49.19;48.05;54.68;;
82130;Laerm;72992;50.450;9.918;2023-11-21T00:21:22;61.10;47.94;77.24;;
82130;Laerm;72992;50.450;9.918;2023-11-21T00:23:47;58.42;48.11;74.29;;
82130;Laerm;72992;50.450;9.918;2023-11-21T00:26:13;60.75;47.99;73.03;;
82130;Laerm;72992;50.450;9.918;2023-11-21T00:28:39;57.56;48.04;71.87;;
82130;Laerm;72992;50.450;9.918;2023-11-21T00:31:05;49.79;48.38;59.91;;
82130;Laerm;72992;50.450;9.918;2023-11-21T00:33:30;54.91;48.34;69.64;;
82130;Laerm;72992;50.450;9.918;2023-11-21T00:35:55;49.79;48.31;54.67;;
82130;Laerm;72992;50.450;9.918;2023-11-21T00:38:21;49.42;48.13;57.81;;
82130;Laerm;72992;50.450;9.918;2023-11-21T00:40:47;58.07;48.18;72.95;;
82130;Laerm;72992;50.450;9.918;2023-11-21T00:43:12;56.43;48.25;70.11;;
82130;Laerm;72992;50.450;9.918;2023-11-21T00:45:37;56.94;47.96;73.59;;
82130;Laerm;72992;50.450;9.918;2023-11-21T00:48:03;56.21;47.99;69.03;;
82130;Laerm;72992;50.450;9.918;2023-11-21T00:50:30;49.07;47.97;53.03;;
82130;Laerm;72992;50.450;9.918;2023-11-21T00:52:55;49.04;47.96;53.45;;
82130;Laerm;72992;50.450;9.918;2023-11-21T00:55:21;60.69;48.21;73.70;;
82130;Laerm;72992;50.450;9.918;2023-11-21T00:57:46;49.18;48.00;53.99;;
82130;Laerm;72992;50.450;9.918;2023-11-21T01:00:11;49.45;48.00;55.86;;
82130;Laerm;72992;50.450;9.918;2023-11-21T01:02:41;51.46;47.80;64.50;;
82130;Laerm;72992;50.450;9.918;2023-11-21T01:05:08;59.64;48.18;75.30;;
82130;Laerm;72992;50.450;9.918;2023-11-21T01:07:33;49.27;48.12;55.61;;
82130;Laerm;72992;50.450;9.918;2023-11-21T01:09:59;50.28;48.13;59.25;;
82130;Laerm;72992;50.450;9.918;2023-11-21T01:12:24;60.08;48.12;74.41;;
82130;Laerm;72992;50.450;9.918;2023-11-21T01:14:50;49.27;47.98;55.11;;
82130;Laerm;72992;50.450;9.918;2023-11-21T01:17:15;59.27;48.13;72.70;;
82130;Laerm;72992;50.450;9.918;2023-11-21T01:19:41;55.61;48.16;68.87;;
82130;Laerm;72992;50.450;9.918;2023-11-21T01:22:07;49.15;47.86;54.19;;
82130;Laerm;72992;50.450;9.918;2023-11-21T01:24:32;54.84;47.91;70.69;;
82130;Laerm;72992;50.450;9.918;2023-11-21T01:26:57;62.68;47.87;79.31;;
82130;Laerm;72992;50.450;9.918;2023-11-21T01:29:23;49.22;47.84;54.63;;
82130;Laerm;72992;50.450;9.918;2023-11-21T01:31:48;61.34;47.99;77.77;;
82130;Laerm;72992;50.450;9.918;2023-11-21T01:34:13;57.33;47.62;70.53;;
82130;Laerm;72992;50.450;9.918;2023-11-21T01:36:39;62.50;47.93;76.38;;
82130;Laerm;72992;50.450;9.918;2023-11-21T01:39:04;60.68;47.84;75.49;;
82130;Laerm;72992;50.450;9.918;2023-11-21T01:41:35;58.51;47.82;74.36;;
82130;Laerm;72992;50.450;9.918;2023-11-21T01:44:02;60.87;47.59;73.93;;
82130;Laerm;72992;50.450;9.918;2023-11-21T01:46:28;48.81;47.74;50.98;;
82130;Laerm;72992;50.450;9.918;2023-11-21T01:48:54;59.15;47.77;72.19;;
82130;Laerm;72992;50.450;9.918;2023-11-21T01:51:19;48.87;47.57;55.06;;
82130;Laerm;72992;50.450;9.918;2023-11-21T01:53:45;60.42;47.89;73.11;;
82130;Laerm;72992;50.450;9.918;2023-11-21T01:56:11;59.84;47.97;71.61;;
82130;Laerm;72992;50.450;9.918;2023-11-21T01:58:37;48.85;47.82;53.25;;
82130;Laerm;72992;50.450;9.918;2023-11-21T02:01:03;48.77;47.71;51.38;;
82130;Laerm;72992;50.450;9.918;2023-11-21T02:03:28;58.68;47.92;74.35;;
82130;Laerm;72992;50.450;9.918;2023-11-21T02:06:04;56.40;47.82;70.44;;
82130;Laerm;72992;50.450;9.918;2023-11-21T02:08:30;54.53;47.81;70.71;;
82130;Laerm;72992;50.450;9.918;2023-11-21T02:10:56;62.72;48.20;76.97;;
82130;Laerm;72992;50.450;9.918;2023-11-21T02:13:22;59.89;48.01;72.34;;
82130;Laerm;72992;50.450;9.918;2023-11-21T02:15:48;58.68;47.87;73.98;;
82130;Laerm;72992;50.450;9.918;2023-11-21T02:18:43;56.39;47.86;70.84;;
82130;Laerm;72992;50.450;9.918;2023-11-21T02:21:09;48.81;47.81;52.18;;
82130;Laerm;72992;50.450;9.918;2023-11-21T02:23:35;56.34;47.67;72.61;;
82130;Laerm;72992;50.450;9.918;2023-11-21T02:26:27;51.71;47.63;66.14;;
82130;Laerm;72992;50.450;9.918;2023-11-21T02:28:52;57.65;47.73;72.88;;
82130;Laerm;72992;50.450;9.918;2023-11-21T02:31:18;64.53;47.87;82.37;;
82130;Laerm;72992;50.450;9.918;2023-11-21T02:33:44;60.85;47.78;73.28;;
82130;Laerm;72992;50.450;9.918;2023-11-21T02:36:09;53.37;47.80;65.61;;
82130;Laerm;72992;50.450;9.918;2023-11-21T02:38:34;48.76;47.78;51.36;;
82130;Laerm;72992;50.450;9.918;2023-11-21T02:41:00;59.48;47.94;72.54;;
82130;Laerm;72992;50.450;9.918;2023-11-21T02:43:25;48.73;47.58;53.76;;
82130;Laerm;72992;50.450;9.918;2023-11-21T02:45:50;53.64;47.79;68.74;;
82130;Laerm;72992;50.450;9.918;2023-11-21T02:48:16;51.71;47.71;65.01;;
82130;Laerm;72992;50.450;9.918;2023-11-21T02:50:41;56.14;47.83;69.06;;
82130;Laerm;72992;50.450;9.918;2023-11-21T02:53:08;60.59;47.84;71.61;;
82130;Laerm;72992;50.450;9.918;2023-11-21T02:55:33;50.69;47.90;60.46;;
82130;Laerm;72992;50.450;9.918;2023-11-21T02:58:02;58.90;47.65;72.53;;
82130;Laerm;72992;50.450;9.918;2023-11-21T03:00:28;58.24;47.87;70.69;;
82130;Laerm;72992;50.450;9.918;2023-11-21T03:02:55;58.44;47.57;72.47;;
82130;Laerm;72992;50.450;9.918;2023-11-21T03:05:20;59.49;47.54;74.10;;
82130;Laerm;72992;50.450;9.918;2023-11-21T03:07:46;48.71;47.42;52.61;;
82130;Laerm;72992;50.450;9.918;2023-11-21T03:10:12;59.26;47.91;74.10;;
82130;Laerm;72992;50.450;9.918;2023-11-21T03:12:37;61.36;47.69;74.17;;
82130;Laerm;72992;50.450;9.918;2023-11-21T03:15:04;49.49;47.65;55.08;;
82130;Laerm;72992;50.450;9.918;2023-11-21T03:17:31;51.70;47.60;66.53;;
82130;Laerm;72992;50.450;9.918;2023-11-21T03:19:56;56.34;47.75;70.77;;
82130;Laerm;72992;50.450;9.918;2023-11-21T03:22:22;62.91;48.34;75.86;;
82130;Laerm;72992;50.450;9.918;2023-11-21T03:24:47;62.94;47.92;76.58;;
82130;Laerm;72992;50.450;9.918;2023-11-21T03:27:13;62.64;47.99;75.12;;
82130;Laerm;72992;50.450;9.918;2023-11-21T03:29:38;59.88;48.13;72.52;;
82130;Laerm;72992;50.450;9.918;2023-11-21T03:32:04;53.73;47.83;69.23;;
82130;Laerm;72992;50.450;9.918;2023-11-21T03:34:30;59.72;47.73;74.96;;
82130;Laerm;72992;50.450;9.918;2023-11-21T03:36:55;61.65;48.05;77.08;;
82130;Laerm;72992;50.450;9.918;2023-11-21T03:39:20;62.92;47.70;75.80;;
82130;Laerm;72992;50.450;9.918;2023-11-21T03:41:46;55.12;47.75;67.07;;
82130;Laerm;72992;50.450;9.918;2023-11-21T03:44:11;49.73;47.70;60.15;;
82130;Laerm;72992;50.450;9.918;2023-11-21T03:46:37;58.76;47.97;69.63;;
82130;Laerm;72992;50.450;9.918;2023-11-21T03:49:02;54.47;47.89;68.28;;
82130;Laerm;72992;50.450;9.918;2023-11-21T03:51:27;58.92;47.86;74.41;;
82130;Laerm;72992;50.450;9.918;2023-11-21T03:53:53;61.26;47.84;74.59;;
82130;Laerm;72992;50.450;9.918;2023-11-21T03:56:19;59.44;47.80;73.39;;
82130;Laerm;72992;50.450;9.918;2023-11-21T03:58:45;60.41;48.01;72.43;;
82130;Laerm;72992;50.450;9.918;2023-11-21T04:01:11;59.32;47.90;73.23;;
82130;Laerm;72992;50.450;9.918;2023-11-21T04:03:36;53.97;47.77;68.48;;
82130;Laerm;72992;50.450;9.918;2023-11-21T04:06:01;55.02;47.84;69.22;;
82130;Laerm;72992;50.450;9.918;2023-11-21T04:08:27;60.28;47.99;74.43;;
82130;Laerm;72992;50.450;9.918;2023-11-21T04:10:52;62.03;47.94;75.55;;
82130;Laerm;72992;50.450;9.918;2023-11-21T04:13:18;55.42;48.04;67.42;;
82130;Laerm;72992;50.450;9.918;2023-11-21T04:15:44;63.34;47.81;74.77;;
82130;Laerm;72992;50.450;9.918;2023-11-21T04:18:09;59.00;48.13;73.25;;
82130;Laerm;72992;50.450;9.918;2023-11-21T04:20:35;60.75;48.15;72.52;;
82130;Laerm;72992;50.450;9.918;2023-11-21T04:23:00;60.31;47.90;71.77;;
82130;Laerm;72992;50.450;9.918;2023-11-21T04:25:26;61.92;48.19;72.71;;
82130;Laerm;72992;50.450;9.918;2023-11-21T04:27:52;62.84;48.57;72.72;;
82130;Laerm;72992;50.450;9.918;2023-11-21T04:30:17;63.02;48.31;72.89;;
82130;Laerm;72992;50.450;9.918;2023-11-21T04:32:43;61.40;48.22;72.66;;
82130;Laerm;72992;50.450;9.918;2023-11-21T04:35:08;59.75;47.91;71.23;;
82130;Laerm;72992;50.450;9.918;2023-11-21T04:37:33;59.41;48.00;75.72;;
82130;Laerm;72992;50.450;9.918;2023-11-21T04:39:59;59.13;48.20;66.93;;
82130;Laerm;72992;50.450;9.918;2023-11-21T04:42:24;61.99;48.44;74.91;;
82130;Laerm;72992;50.450;9.918;2023-11-21T04:44:50;61.74;48.81;70.54;;
82130;Laerm;72992;50.450;9.918;2023-11-21T04:47:15;60.30;48.19;74.09;;
82130;Laerm;72992;50.450;9.918;2023-11-21T04:49:41;58.16;48.30;67.48;;
82130;Laerm;72992;50.450;9.918;2023-11-21T04:52:07;57.71;47.88;66.75;;
82130;Laerm;72992;50.450;9.918;2023-11-21T04:54:34;61.27;48.19;73.56;;
82130;Laerm;72992;50.450;9.918;2023-11-21T04:57:00;62.23;48.47;71.78;;
82130;Laerm;72992;50.450;9.918;2023-11-21T04:59:26;63.25;48.59;73.58;;
82130;Laerm;72992;50.450;9.918;2023-11-21T05:01:52;63.46;48.67;73.01;;
82130;Laerm;72992;50.450;9.918;2023-11-21T05:04:18;60.39;48.18;74.60;;
82130;Laerm;72992;50.450;9.918;2023-11-21T05:06:44;65.34;52.13;73.94;;
82130;Laerm;72992;50.450;9.918;2023-11-21T05:09:09;59.13;47.81;68.38;;
82130;Laerm;72992;50.450;9.918;2023-11-21T05:11:37;60.57;47.79;70.88;;
82130;Laerm;72992;50.450;9.918;2023-11-21T05:14:02;58.24;48.18;67.68;;
82130;Laerm;72992;50.450;9.918;2023-11-21T05:16:29;62.24;49.43;71.91;;
82130;Laerm;72992;50.450;9.918;2023-11-21T05:18:54;62.09;48.99;75.05;;
82130;Laerm;72992;50.450;9.918;2023-11-21T05:21:25;62.55;48.34;72.87;;
82130;Laerm;72992;50.450;9.918;2023-11-21T05:23:50;63.06;48.09;73.21;;
82130;Laerm;72992;50.450;9.918;2023-11-21T05:26:16;58.88;48.32;67.90;;
82130;Laerm;72992;50.450;9.918;2023-11-21T05:28:41;65.61;52.86;76.20;;
82130;Laerm;72992;50.450;9.918;2023-11-21T05:31:06;62.70;47.92;76.47;;
82130;Laerm;72992;50.450;9.918;2023-11-21T05:33:32;62.92;48.19;73.61;;
82130;Laerm;72992;50.450;9.918;2023-11-21T05:35:58;64.71;50.55;74.21;;
82130;Laerm;72992;50.450;9.918;2023-11-21T05:38:23;65.00;50.00;74.98;;
82130;Laerm;72992;50.450;9.918;2023-11-21T05:40:49;65.31;52.23;80.84;;
82130;Laerm;72992;50.450;9.918;2023-11-21T05:43:14;62.98;48.48;72.26;;
82130;Laerm;72992;50.450;9.918;2023-11-21T05:45:40;62.93;49.26;72.40;;
82130;Laerm;72992;50.450;9.918;2023-11-21T05:48:05;62.23;48.47;73.10;;
82130;Laerm;72992;50.450;9.918;2023-11-21T05:50:31;62.17;49.44;69.85;;
82130;Laerm;72992;50.450;9.918;2023-11-21T05:52:57;60.69;48.20;72.48;;
82130;Laerm;72992;50.450;9.918;2023-11-21T05:55:25;58.84;47.98;68.85;;
82130;Laerm;72992;50.450;9.918;2023-11-21T05:57:50;63.83;48.73;72.44;;
82130;Laerm;72992;50.450;9.918;2023-11-21T06:00:16;63.24;49.46;74.58;;
82130;Laerm;72992;50.450;9.918;2023-11-21T06:02:50;61.96;48.58;73.26;;
82130;Laerm;72992;50.450;9.918;2023-11-21T06:05:18;64.87;48.75;76.66;;
82130;Laerm;72992;50.450;9.918;2023-11-21T06:07:43;62.61;48.46;73.30;;
82130;Laerm;72992;50.450;9.918;2023-11-21T06:10:10;63.35;48.22;74.55;;
82130;Laerm;72992;50.450;9.918;2023-11-21T06:12:36;62.42;48.62;72.56;;
82130;Laerm;72992;50.450;9.918;2023-11-21T06:15:02;63.81;50.28;71.28;;
82130;Laerm;72992;50.450;9.918;2023-11-21T06:17:30;65.59;50.51;74.05;;
82130;Laerm;72992;50.450;9.918;2023-11-21T06:19:55;63.74;49.09;73.44;;
82130;Laerm;72992;50.450;9.918;2023-11-21T06:22:20;61.78;49.03;69.65;;
82130;Laerm;72992;50.450;9.918;2023-11-21T06:24:46;62.05;50.00;79.11;;
82130;Laerm;72992;50.450;9.918;2023-11-21T06:27:11;65.23;49.95;77.23;;
82130;Laerm;72992;50.450;9.918;2023-11-21T06:29:37;65.48;56.23;73.35;;
82130;Laerm;72992;50.450;9.918;2023-11-21T06:32:03;63.67;51.12;75.29;;
82130;Laerm;72992;50.450;9.918;2023-11-21T06:34:30;63.52;50.19;74.08;;
82130;Laerm;72992;50.450;9.918;2023-11-21T06:36:55;60.93;48.82;71.17;;
82130;Laerm;72992;50.450;9.918;2023-11-21T06:39:21;64.51;49.37;74.17;;
82130;Laerm;72992;50.450;9.918;2023-11-21T06:41:48;63.63;51.16;76.49;;
82130;Laerm;72992;50.450;9.918;2023-11-21T06:44:14;64.45;54.59;73.59;;
82130;Laerm;72992;50.450;9.918;2023-11-21T06:46:39;65.76;53.34;73.58;;
82130;Laerm;72992;50.450;9.918;2023-11-21T06:49:07;64.83;50.33;75.02;;
82130;Laerm;72992;50.450;9.918;2023-11-21T06:51:32;65.16;52.24;74.83;;
82130;Laerm;72992;50.450;9.918;2023-11-21T06:53:58;62.68;51.56;69.26;;
82130;Laerm;72992;50.450;9.918;2023-11-21T06:56:23;63.06;48.52;75.59;;
82130;Laerm;72992;50.450;9.918;2023-11-21T06:58:48;63.50;51.35;75.10;;
82130;Laerm;72992;50.450;9.918;2023-11-21T07:01:14;63.31;50.52;73.55;;
82130;Laerm;72992;50.450;9.918;2023-11-21T07:03:40;63.25;48.50;78.07;;
82130;Laerm;72992;50.450;9.918;2023-11-21T07:06:06;64.60;50.19;76.62;;
82130;Laerm;72992;50.450;9.918;2023-11-21T07:08:32;61.17;49.62;71.35;;
82130;Laerm;72992;50.450;9.918;2023-11-21T07:10:57;64.07;48.88;76.65;;
82130;Laerm;72992;50.450;9.918;2023-11-21T07:13:23;62.55;48.64;73.39;;
82130;Laerm;72992;50.450;9.918;2023-11-21T07:15:48;65.36;51.34;76.30;;
82130;Laerm;72992;50.450;9.918;2023-11-21T07:18:14;63.69;48.29;74.03;;
82130;Laerm;72992;50.450;9.918;2023-11-21T07:20:39;63.79;49.76;74.37;;
82130;Laerm;72992;50.450;9.918;2023-11-21T07:23:05;63.40;49.10;74.67;;
82130;Laerm;72992;50.450;9.918;2023-11-21T07:25:31;64.33;52.85;74.24;;
82130;Laerm;72992;50.450;9.918;2023-11-21T07:27:57;64.55;49.55;76.20;;
82130;Laerm;72992;50.450;9.918;2023-11-21T07:30:22;66.83;52.79;78.21;;
82130;Laerm;72992;50.450;9.918;2023-11-21T07:32:48;63.47;49.91;77.18;;
82130;Laerm;72992;50.450;9.918;2023-11-21T07:35:13;63.39;48.84;77.18;;
82130;Laerm;72992;50.450;9.918;2023-11-21T07:37:39;63.46;48.83;71.47;;
82130;Laerm;72992;50.450;9.918;2023-11-21T07:40:04;60.45;48.92;68.88;;
82130;Laerm;72992;50.450;9.918;2023-11-21T07:42:30;62.44;48.73;71.24;;
82130;Laerm;72992;50.450;9.918;2023-11-21T07:44:55;71.35;49.37;84.86;;
82130;Laerm;72992;50.450;9.918;2023-11-21T07:47:21;66.10;51.98;79.37;;
82130;Laerm;72992;50.450;9.918;2023-11-21T07:49:47;64.23;52.02;72.78;;
82130;Laerm;72992;50.450;9.918;2023-11-21T07:52:13;63.45;50.98;79.17;;
82130;Laerm;72992;50.450;9.918;2023-11-21T07:54:38;62.27;50.86;72.83;;
82130;Laerm;72992;50.450;9.918;2023-11-21T07:57:03;66.66;52.38;78.15;;
82130;Laerm;72992;50.450;9.918;2023-11-21T07:59:29;64.54;55.26;76.64;;
82130;Laerm;72992;50.450;9.918;2023-11-21T08:01:54;62.43;58.24;67.63;;
82130;Laerm;72992;50.450;9.918;2023-11-21T08:04:20;66.06;59.81;74.32;;
82130;Laerm;72992;50.450;9.918;2023-11-21T08:06:45;66.98;58.14;74.59;;
82130;Laerm;72992;50.450;9.918;2023-11-21T08:09:10;66.88;59.79;78.21;;
82130;Laerm;72992;50.450;9.918;2023-11-21T08:11:37;65.14;54.71;74.37;;
82130;Laerm;72992;50.450;9.918;2023-11-21T08:14:03;61.42;49.67;72.05;;
82130;Laerm;72992;50.450;9.918;2023-11-21T08:16:30;64.78;50.28;75.48;;
82130;Laerm;72992;50.450;9.918;2023-11-21T08:18:55;62.36;49.73;72.99;;
82130;Laerm;72992;50.450;9.918;2023-11-21T08:21:20;63.91;49.92;73.10;;
82130;Laerm;72992;50.450;9.918;2023-11-21T08:23:46;64.73;50.90;79.38;;
82130;Laerm;72992;50.450;9.918;2023-11-21T08:26:12;64.18;52.59;75.17;;
82130;Laerm;72992;50.450;9.918;2023-11-21T08:28:38;60.25;50.55;71.16;;
82130;Laerm;72992;50.450;9.918;2023-11-21T08:31:03;65.26;53.35;76.76;;
82130;Laerm;72992;50.450;9.918;2023-11-21T08:33:29;63.06;52.40;74.46;;
82130;Laerm;72992;50.450;9.918;2023-11-21T08:35:55;65.34;52.12;74.59;;
82130;Laerm;72992;50.450;9.918;2023-11-21T08:38:20;58.57;51.64;67.56;;
82130;Laerm;72992;50.450;9.918;2023-11-21T08:40:45;62.71;51.80;73.12;;
82130;Laerm;72992;50.450;9.918;2023-11-21T08:43:11;64.39;52.01;73.91;;
82130;Laerm;72992;50.450;9.918;2023-11-21T08:45:37;62.35;52.41;75.87;;
82130;Laerm;72992;50.450;9.918;2023-11-21T08:48:02;59.44;50.77;66.32;;
82130;Laerm;72992;50.450;9.918;2023-11-21T08:50:28;65.04;52.37;74.81;;
82130;Laerm;72992;50.450;9.918;2023-11-21T08:52:53;62.11;51.14;71.98;;
82130;Laerm;72992;50.450;9.918;2023-11-21T08:55:19;64.42;50.54;76.45;;
82130;Laerm;72992;50.450;9.918;2023-11-21T08:57:45;61.70;51.41;71.88;;
82130;Laerm;72992;50.450;9.918;2023-11-21T09:00:12;66.21;52.62;75.26;;
82130;Laerm;72992;50.450;9.918;2023-11-21T09:02:40;62.15;50.97;73.15;;
82130;Laerm;72992;50.450;9.918;2023-11-21T09:05:07;62.77;51.12;76.13;;
82130;Laerm;72992;50.450;9.918;2023-11-21T09:07:34;63.85;50.63;78.71;;
82130;Laerm;72992;50.450;9.918;2023-11-21T09:09:59;63.18;51.10;75.51;;
82130;Laerm;72992;50.450;9.918;2023-11-21T09:12:24;63.14;50.74;73.22;;
82130;Laerm;72992;50.450;9.918;2023-11-21T09:14:50;65.97;51.33;78.54;;
82130;Laerm;72992;50.450;9.918;2023-11-21T09:17:16;59.75;51.16;71.70;;
82130;Laerm;72992;50.450;9.918;2023-11-21T09:19:41;61.84;50.91;71.21;;
82130;Laerm;72992;50.450;9.918;2023-11-21T09:22:10;62.04;49.82;75.23;;
82130;Laerm;72992;50.450;9.918;2023-11-21T09:24:35;63.22;49.62;72.67;;
82130;Laerm;72992;50.450;9.918;2023-11-21T09:27:01;63.95;49.66;76.70;;
82130;Laerm;72992;50.450;9.918;2023-11-21T09:29:26;62.21;50.51;71.24;;
82130;Laerm;72992;50.450;9.918;2023-11-21T09:31:52;63.71;52.26;70.96;;
82130;Laerm;72992;50.450;9.918;2023-11-21T09:34:18;61.81;49.13;72.63;;
82130;Laerm;72992;50.450;9.918;2023-11-21T09:36:46;61.37;48.91;72.06;;
82130;Laerm;72992;50.450;9.918;2023-11-21T09:39:11;63.48;49.03;75.25;;
82130;Laerm;72992;50.450;9.918;2023-11-21T09:41:43;57.67;49.67;68.34;;
82130;Laerm;72992;50.450;9.918;2023-11-21T09:44:09;64.31;49.59;73.07;;
82130;Laerm;72992;50.450;9.918;2023-11-21T09:46:37;60.84;49.53;73.70;;
82130;Laerm;72992;50.450;9.918;2023-11-21T09:49:05;58.45;48.89;67.58;;
82130;Laerm;72992;50.450;9.918;2023-11-21T09:51:37;62.79;49.27;69.75;;
82130;Laerm;72992;50.450;9.918;2023-11-21T09:54:05;64.12;48.87;75.20;;
82130;Laerm;72992;50.450;9.918;2023-11-21T09:56:32;64.59;51.12;75.08;;
82130;Laerm;72992;50.450;9.918;2023-11-21T09:58:57;60.19;49.53;70.92;;
82130;Laerm;72992;50.450;9.918;2023-11-21T10:01:28;64.82;48.81;75.93;;
82130;Laerm;72992;50.450;9.918;2023-11-21T10:03:54;63.57;51.96;75.42;;
82130;Laerm;72992;50.450;9.918;2023-11-21T10:06:21;61.37;49.30;70.55;;
82130;Laerm;72992;50.450;9.918;2023-11-21T10:08:48;62.64;48.69;78.86;;
82130;Laerm;72992;50.450;9.918;2023-11-21T10:11:15;62.33;50.22;73.92;;
82130;Laerm;72992;50.450;9.918;2023-11-21T10:13:43;62.95;48.76;74.74;;
82130;Laerm;72992;50.450;9.918;2023-11-21T10:16:11;61.18;48.44;70.08;;
82130;Laerm;72992;50.450;9.918;2023-11-21T10:18:39;64.15;49.31;75.19;;
82130;Laerm;72992;50.450;9.918;2023-11-21T10:21:06;59.75;49.89;67.57;;
82130;Laerm;72992;50.450;9.918;2023-11-21T10:23:31;59.90;48.33;69.80;;
82130;Laerm;72992;50.450;9.918;2023-11-21T10:25:57;63.11;49.63;73.25;;
82130;Laerm;72992;50.450;9.918;2023-11-21T10:28:24;65.16;52.23;74.32;;
82130;Laerm;72992;50.450;9.918;2023-11-21T10:30:49;65.89;52.01;75.82;;
82130;Laerm;72992;50.450;9.918;2023-11-21T10:33:15;61.35;51.34;74.09;;
82130;Laerm;72992;50.450;9.918;2023-11-21T10:38:06;63.46;50.00;74.15;;
82130;Laerm;72992;50.450;9.918;2023-11-21T10:40:37;64.43;50.70;75.20;;
82130;Laerm;72992;50.450;9.918;2023-11-21T10:43:07;63.65;50.86;75.04;;
82130;Laerm;72992;50.450;9.918;2023-11-21T10:45:34;60.24;49.53;71.89;;
82130;Laerm;72992;50.450;9.918;2023-11-21T10:47:59;63.36;52.53;72.87;;
82130;Laerm;72992;50.450;9.918;2023-11-21T10:50:25;63.50;51.57;75.06;;
82130;Laerm;72992;50.450;9.918;2023-11-21T10:52:51;62.43;51.07;72.02;;
82130;Laerm;72992;50.450;9.918;2023-11-21T10:55:19;61.75;55.27;69.60;;
82130;Laerm;72992;50.450;9.918;2023-11-21T10:57:51;63.18;49.17;74.98;;
82130;Laerm;72992;50.450;9.918;2023-11-21T11:00:17;62.02;51.35;73.72;;
82130;Laerm;72992;50.450;9.918;2023-11-21T11:02:46;64.14;53.69;73.65;;
82130;Laerm;72992;50.450;9.918;2023-11-21T11:05:14;64.65;49.36;80.92;;
82130;Laerm;72992;50.450;9.918;2023-11-21T11:07:40;61.50;49.39;69.72;;
82130;Laerm;72992;50.450;9.918;2023-11-21T11:10:08;62.81;50.63;78.67;;
82130;Laerm;72992;50.450;9.918;2023-11-21T11:12:39;63.61;49.70;73.13;;
82130;Laerm;72992;50.450;9.918;2023-11-21T11:15:04;60.17;50.08;71.90;;
82130;Laerm;72992;50.450;9.918;2023-11-21T11:17:30;62.36;49.79;77.89;;
82130;Laerm;72992;50.450;9.918;2023-11-21T11:19:57;63.28;53.70;79.95;;
82130;Laerm;72992;50.450;9.918;2023-11-21T11:22:33;59.55;49.62;69.56;;
82130;Laerm;72992;50.450;9.918;2023-11-21T11:25:13;62.12;49.21;72.71;;
82130;Laerm;72992;50.450;9.918;2023-11-21T11:32:53;63.57;50.70;75.10;;
82130;Laerm;72992;50.450;9.918;2023-11-21T11:35:33;63.84;49.04;78.17;;
82130;Laerm;72992;50.450;9.918;2023-11-21T11:37:59;62.23;49.38;75.25;;
82130;Laerm;72992;50.450;9.918;2023-11-21T11:40:25;63.93;50.20;75.14;;
82130;Laerm;72992;50.450;9.918;2023-11-21T11:43:03;64.21;50.57;84.08;;
82130;Laerm;72992;50.450;9.918;2023-11-21T11:45:32;60.12;48.66;72.19;;
82130;Laerm;72992;50.450;9.918;2023-11-21T11:47:59;63.44;48.40;73.47;;
82130;Laerm;72992;50.450;9.918;2023-11-21T11:50:25;65.26;49.68;82.31;;
82130;Laerm;72992;50.450;9.918;2023-11-21T11:52:54;64.24;50.17;75.87;;
82130;Laerm;72992;50.450;9.918;2023-11-21T11:55:22;62.01;48.58;72.07;;
82130;Laerm;72992;50.450;9.918;2023-11-21T11:57:52;63.46;50.19;76.28;;
82130;Laerm;72992;50.450;9.918;2023-11-21T12:02:55;61.43;50.08;72.93;;
82130;Laerm;72992;50.450;9.918;2023-11-21T12:05:22;63.91;50.95;73.60;;
82130;Laerm;72992;50.450;9.918;2023-11-21T12:10:17;63.15;50.97;77.79;;
82130;Laerm;72992;50.450;9.918;2023-11-21T12:12:43;63.09;50.86;75.28;;
82130;Laerm;72992;50.450;9.918;2023-11-21T12:15:10;58.79;48.92;68.49;;
82130;Laerm;72992;50.450;9.918;2023-11-21T12:17:36;62.78;51.83;70.13;;
82130;Laerm;72992;50.450;9.918;2023-11-21T12:20:02;63.51;49.22;79.27;;
82130;Laerm;72992;50.450;9.918;2023-11-21T12:22:29;62.04;50.52;72.57;;
82130;Laerm;72992;50.450;9.918;2023-11-21T12:24:55;64.28;51.66;72.65;;
82130;Laerm;72992;50.450;9.918;2023-11-21T12:27:21;66.25;59.92;73.50;;
82130;Laerm;72992;50.450;9.918;2023-11-21T12:29:46;67.81;59.52;77.45;;
82130;Laerm;72992;50.450;9.918;2023-11-21T12:32:12;67.94;54.10;77.74;;
82130;Laerm;72992;50.450;9.918;2023-11-21T12:34:40;64.27;49.12;73.45;;
82130;Laerm;72992;50.450;9.918;2023-11-21T12:37:05;61.27;49.69;71.44;;
82130;Laerm;72992;50.450;9.918;2023-11-21T12:39:31;61.82;48.17;75.23;;
82130;Laerm;72992;50.450;9.918;2023-11-21T12:41:56;63.23;48.65;74.25;;
82130;Laerm;72992;50.450;9.918;2023-11-21T12:44:22;59.33;48.23;68.48;;
82130;Laerm;72992;50.450;9.918;2023-11-21T12:46:49;63.46;50.68;75.18;;
82130;Laerm;72992;50.450;9.918;2023-11-21T12:49:15;59.87;47.94;68.71;;
82130;Laerm;72992;50.450;9.918;2023-11-21T12:51:43;62.13;48.46;73.67;;
82130;Laerm;72992;50.450;9.918;2023-11-21T12:54:09;62.10;50.62;71.17;;
82130;Laerm;72992;50.450;9.918;2023-11-21T12:56:38;62.39;48.88;71.86;;
82130;Laerm;72992;50.450;9.918;2023-11-21T12:59:03;62.66;48.12;73.24;;
82130;Laerm;72992;50.450;9.918;2023-11-21T13:01:29;65.29;54.95;81.77;;
82130;Laerm;72992;50.450;9.918;2023-11-21T13:03:59;62.84;54.85;72.46;;
82130;Laerm;72992;50.450;9.918;2023-11-21T13:06:25;62.96;49.74;70.71;;
82130;Laerm;72992;50.450;9.918;2023-11-21T13:08:51;64.81;53.72;73.82;;
82130;Laerm;72992;50.450;9.918;2023-11-21T13:11:16;67.12;60.48;74.40;;
82130;Laerm;72992;50.450;9.918;2023-11-21T13:13:42;67.79;54.81;76.51;;
82130;Laerm;72992;50.450;9.918;2023-11-21T13:16:08;62.00;48.16;73.27;;
82130;Laerm;72992;50.450;9.918;2023-11-21T13:18:35;64.37;48.95;74.45;;
82130;Laerm;72992;50.450;9.918;2023-11-21T13:21:04;64.87;48.79;78.00;;
82130;Laerm;72992;50.450;9.918;2023-11-21T13:23:40;60.42;49.37;69.74;;
82130;Laerm;72992;50.450;9.918;2023-11-21T13:26:06;61.28;48.38;72.66;;
82130;Laerm;72992;50.450;9.918;2023-11-21T13:28:33;64.27;49.17;73.64;;
82130;Laerm;72992;50.450;9.918;2023-11-21T13:30:59;61.29;49.81;70.25;;
82130;Laerm;72992;50.450;9.918;2023-11-21T13:33:34;62.30;48.62;69.91;;
82130;Laerm;72992;50.450;9.918;2023-11-21T13:36:03;61.32;48.67;70.22;;
82130;Laerm;72992;50.450;9.918;2023-11-21T13:38:32;60.47;48.12;69.89;;
82130;Laerm;72992;50.450;9.918;2023-11-21T13:40:59;62.85;49.82;72.98;;
82130;Laerm;72992;50.450;9.918;2023-11-21T13:43:25;60.32;49.18;68.14;;
82130;Laerm;72992;50.450;9.918;2023-11-21T13:45:51;62.56;50.65;73.26;;
82130;Laerm;72992;50.450;9.918;2023-11-21T13:48:18;62.81;52.17;77.10;;
82130;Laerm;72992;50.450;9.918;2023-11-21T13:50:53;64.66;50.35;78.43;;
82130;Laerm;72992;50.450;9.918;2023-11-21T13:53:26;60.68;48.54;71.20;;